Time;durP1;ratioP1;P1;durP2;ratioP2;P2;SDS_P1;SDS_P2;PMS_P1;PMS_P2;Temp;Humidity;BMP_temperature;BMP_pressure;BME280_temperature;BME280_humidity;BME280_pressure;Samples;Min_cycle;Max_cycle;Signal;HPM_P1;HPM_P2
2023/03/09 00:01:41;;;;;;;10.27;4.30;;;;;;;11.80;99.61;98073.88;5055056;28;20051;-93
2023/03/09 00:04:12;;;;;;;14.27;4.80;;;;;;;11.63;99.11;98056.81;5055888;28;20048;-92
2023/03/09 00:06:38;;;;;;;13.13;4.88;;;;;;;11.60;99.29;98054.28;5055925;28;20041;-93
2023/03/09 00:09:05;;;;;;;16.63;6.10;;;;;;;11.68;99.44;98053.94;5056238;28;20135;-93
2023/03/09 00:11:31;;;;;;;14.60;6.88;;;;;;;11.71;99.58;98073.31;5056110;28;20388;-92
2023/03/09 00:13:57;;;;;;;9.13;4.25;;;;;;;11.70;99.34;98057.41;5055605;28;20132;-94
2023/03/09 00:16:26;;;;;;;9.02;4.18;;;;;;;11.72;99.41;98075.03;5055494;28;20060;-93
2023/03/09 00:18:52;;;;;;;9.38;3.88;;;;;;;11.79;99.08;98066.78;5056103;28;20036;-95
2023/03/09 00:24:24;;;;;;;13.38;4.35;;;;;;;11.69;98.98;98024.59;5092333;27;20373;-90
2023/03/09 00:26:52;;;;;;;7.57;3.85;;;;;;;11.81;98.42;98040.97;5091800;28;20044;-94
2023/03/09 00:29:17;;;;;;;9.52;3.90;;;;;;;11.80;98.22;98032.09;5083342;28;20040;-91
2023/03/09 00:31:44;;;;;;;7.57;3.88;;;;;;;11.76;98.88;98037.63;5091159;28;20032;-91
2023/03/09 00:34:10;;;;;;;6.97;3.50;;;;;;;11.75;97.97;98017.25;5088485;28;20460;-91
2023/03/09 00:36:36;;;;;;;7.45;3.70;;;;;;;11.77;97.96;98007.41;5091017;28;20040;-91
2023/03/09 00:39:03;;;;;;;9.63;3.88;;;;;;;11.76;98.45;98008.34;5091331;28;20072;-92
2023/03/09 00:41:31;;;;;;;7.13;3.92;;;;;;;11.63;98.17;97986.72;5091223;28;20036;-90
2023/03/09 00:43:57;;;;;;;9.00;3.80;;;;;;;11.68;98.24;98001.53;5090923;28;20040;-92
2023/03/09 00:46:23;;;;;;;9.85;4.07;;;;;;;11.85;97.27;98024.78;5090364;28;20040;-92
2023/03/09 00:48:49;;;;;;;7.90;3.95;;;;;;;11.76;97.81;98003.00;5091223;28;20047;-91
2023/03/09 00:51:16;;;;;;;8.75;3.85;;;;;;;11.64;97.12;98010.59;5090348;28;20036;-92
2023/03/09 00:53:42;;;;;;;7.72;4.13;;;;;;;11.85;96.51;98032.75;5091333;28;20486;-92
2023/03/09 00:56:18;;;;;;;7.05;3.60;;;;;;;11.82;96.44;98024.03;5090887;28;20051;-93
2023/03/09 00:58:46;;;;;;;6.32;3.60;;;;;;;11.77;96.78;98028.69;5090330;28;20044;-92
2023/03/09 01:01:13;;;;;;;7.70;3.70;;;;;;;11.79;96.12;98034.84;5090561;28;20528;-93
2023/03/09 01:03:40;;;;;;;7.38;4.43;;;;;;;11.64;96.60;98015.06;5090391;28;20702;-92
2023/03/09 01:06:06;;;;;;;9.18;3.50;;;;;;;11.59;96.77;98015.25;5084840;28;20104;-93
2023/03/09 01:08:33;;;;;;;6.60;3.50;;;;;;;11.58;96.37;98018.88;5090719;28;20146;-95
2023/03/09 01:10:59;;;;;;;4.72;3.13;;;;;;;11.65;95.96;98020.31;5090317;28;20040;-92
2023/03/09 01:13:25;;;;;;;9.32;3.47;;;;;;;11.71;95.67;98032.53;5090302;28;20036;-93
2023/03/09 01:15:52;;;;;;;6.40;3.13;;;;;;;11.61;95.35;97997.41;5090423;28;20090;-93
2023/03/09 01:18:18;;;;;;;8.13;3.72;;;;;;;11.76;94.79;98019.00;5090067;28;20447;-93
2023/03/09 01:20:44;;;;;;;6.57;3.03;;;;;;;11.66;94.80;98005.19;5089824;28;20044;-95
2023/03/09 01:23:11;;;;;;;5.97;2.97;;;;;;;11.68;94.72;98006.84;5089771;28;20049;-94
2023/03/09 01:25:39;;;;;;;8.07;3.45;;;;;;;11.68;94.51;97995.34;5089982;28;20040;-94
2023/03/09 01:28:04;;;;;;;8.30;3.63;;;;;;;11.59;94.06;97979.78;5090404;28;20067;-92
2023/03/09 01:30:31;;;;;;;9.55;3.45;;;;;;;11.71;93.76;97995.22;5088884;28;20036;-92
2023/03/09 01:32:58;;;;;;;8.20;3.33;;;;;;;11.69;93.62;98011.28;5090048;28;20052;-92
2023/03/09 01:35:24;;;;;;;6.60;3.17;;;;;;;11.68;93.47;98004.19;5077277;28;20075;-93
2023/03/09 01:37:50;;;;;;;7.18;3.00;;;;;;;11.62;93.35;98006.25;5076274;28;20063;-93
2023/03/09 01:40:20;;;;;;;7.47;3.17;;;;;;;11.65;93.98;98009.66;5076285;28;20070;-94
2023/03/09 01:42:54;;;;;;;7.82;3.65;;;;;;;11.77;92.69;98012.72;5076104;28;20127;-93
2023/03/09 01:45:56;;;;;;;7.63;3.42;;;;;;;11.76;92.90;98016.34;5075308;28;20044;-94
2023/03/09 01:48:24;;;;;;;7.60;3.40;;;;;;;11.65;93.19;98012.34;5064802;28;20119;-93
2023/03/09 01:50:50;;;;;;;6.70;3.50;;;;;;;11.62;93.33;98023.09;5076196;28;20032;-94
2023/03/09 01:53:17;;;;;;;7.53;3.30;;;;;;;11.65;92.65;98033.63;5076268;28;20102;-94
2023/03/09 01:55:46;;;;;;;5.95;3.00;;;;;;;11.65;92.81;98028.31;5076163;28;20062;-94
2023/03/09 01:58:17;;;;;;;8.05;3.17;;;;;;;11.61;92.30;98020.53;5074831;28;20108;-92
2023/03/09 02:00:47;;;;;;;6.97;3.47;;;;;;;11.56;92.78;98007.41;5075306;28;20040;-93
2023/03/09 02:03:16;;;;;;;6.53;3.30;;;;;;;11.61;92.28;98015.19;5076606;28;20037;-94
2023/03/09 02:05:49;;;;;;;4.78;3.08;;;;;;;11.61;92.55;98021.38;5075736;28;20436;-92
2023/03/09 02:08:16;;;;;;;6.70;3.28;;;;;;;11.52;93.06;98005.81;5076242;28;20052;-94
2023/03/09 02:10:46;;;;;;;6.38;4.00;;;;;;;11.54;93.18;98016.38;5075723;28;20041;-92
2023/03/09 02:13:15;;;;;;;10.57;3.50;;;;;;;11.44;92.63;97998.13;5076117;28;20532;-92
2023/03/09 02:15:41;;;;;;;8.23;3.60;;;;;;;11.52;92.51;98000.50;5075932;28;20494;-94
2023/03/09 02:18:07;;;;;;;6.22;3.53;;;;;;;11.46;91.58;97990.97;5076223;28;20055;-94
2023/03/09 02:20:40;;;;;;;4.80;2.85;;;;;;;11.51;91.93;98004.06;5075661;28;20045;-92
2023/03/09 02:23:15;;;;;;;7.80;3.15;;;;;;;11.57;91.96;98006.47;5075090;28;20072;-94
2023/03/09 02:25:50;;;;;;;8.13;3.63;;;;;;;11.52;92.05;98001.34;5074935;28;20086;-93
2023/03/09 02:28:18;;;;;;;7.18;3.28;;;;;;;11.48;92.03;98006.88;5075381;28;20037;-93
2023/03/09 02:30:47;;;;;;;9.32;3.60;;;;;;;11.59;91.37;98017.06;5075206;28;20044;-91
2023/03/09 02:33:25;;;;;;;7.00;3.40;;;;;;;11.57;92.11;98016.25;5074673;28;20128;-92
2023/03/09 02:35:51;;;;;;;6.63;3.38;;;;;;;11.57;91.24;98017.13;5072993;28;20041;-93
2023/03/09 02:38:17;;;;;;;4.75;3.10;;;;;;;11.55;91.07;98004.81;5075187;28;20051;-93
2023/03/09 02:40:44;;;;;;;5.75;3.03;;;;;;;11.55;90.78;98002.16;5075370;28;20044;-91
2023/03/09 02:43:11;;;;;;;8.43;3.30;;;;;;;11.47;90.90;97991.81;5075125;28;20051;-93
2023/03/09 02:45:38;;;;;;;5.88;3.25;;;;;;;11.48;90.64;97994.41;5073420;28;20508;-94
2023/03/09 02:48:04;;;;;;;7.40;3.10;;;;;;;11.57;90.86;98010.94;5075643;28;20047;-93
2023/03/09 02:50:31;;;;;;;7.57;3.22;;;;;;;11.61;90.27;98018.72;5075494;28;20094;-95
2023/03/09 02:52:56;;;;;;;8.10;3.17;;;;;;;11.57;90.11;98011.78;5072993;28;20032;-92
2023/03/09 02:55:22;;;;;;;4.88;2.70;;;;;;;11.47;90.39;98007.78;5074283;28;20051;-91
2023/03/09 02:57:48;;;;;;;5.50;3.13;;;;;;;11.60;90.73;98030.31;5074610;28;20040;-93
2023/03/09 03:00:15;;;;;;;6.35;3.30;;;;;;;11.49;90.53;98003.25;5075973;28;20041;-93
2023/03/09 03:02:43;;;;;;;6.35;3.15;;;;;;;11.48;90.55;97988.22;5074674;28;20153;-92
2023/03/09 03:05:09;;;;;;;5.45;3.17;;;;;;;11.58;89.67;98002.88;5074787;28;20037;-91
2023/03/09 03:07:36;;;;;;;6.03;3.20;;;;;;;11.62;90.09;98006.25;5074571;28;20055;-94
2023/03/09 03:10:02;;;;;;;7.28;3.13;;;;;;;11.62;90.26;98008.94;5075030;28;20504;-91
2023/03/09 03:12:27;;;;;;;7.25;3.20;;;;;;;11.59;90.66;97996.63;5074186;28;20071;-93
2023/03/09 03:14:53;;;;;;;6.10;3.08;;;;;;;11.55;90.86;97991.50;5074657;28;20494;-92
2023/03/09 03:17:19;;;;;;;7.53;3.40;;;;;;;11.44;91.32;97965.34;5074310;28;20060;-95
2023/03/09 03:19:47;;;;;;;7.47;3.38;;;;;;;11.49;90.71;97963.31;5075087;28;20482;-94
2023/03/09 03:22:13;;;;;;;6.93;3.20;;;;;;;11.54;90.50;97968.44;5074133;28;20045;-92
2023/03/09 03:24:39;;;;;;;6.32;3.20;;;;;;;11.57;90.99;97974.50;5074682;28;20564;-91
2023/03/09 03:27:06;;;;;;;6.40;3.00;;;;;;;11.49;91.21;97961.56;5074182;28;20501;-91
2023/03/09 03:29:32;;;;;;;7.32;3.10;;;;;;;11.46;91.49;97955.47;5074296;28;20502;-91
2023/03/09 03:31:57;;;;;;;7.95;3.00;;;;;;;11.42;91.98;97957.41;5074230;28;20063;-90
2023/03/09 03:34:23;;;;;;;9.07;3.20;;;;;;;11.52;92.32;97971.19;5074568;28;20056;-90
2023/03/09 03:36:51;;;;;;;6.18;3.00;;;;;;;11.49;91.92;97953.56;5074528;28;20044;-92
2023/03/09 03:39:17;;;;;;;7.72;3.03;;;;;;;11.46;91.81;97963.47;5074676;28;20075;-92
2023/03/09 03:41:43;;;;;;;6.50;3.30;;;;;;;11.49;91.79;97966.00;5074853;28;20044;-92
2023/03/09 03:44:09;;;;;;;6.25;2.88;;;;;;;11.46;91.70;97963.47;5074166;28;20047;-92
2023/03/09 03:46:35;;;;;;;6.63;3.10;;;;;;;11.50;91.48;97965.94;5073809;28;20131;-91
2023/03/09 03:49:00;;;;;;;9.40;3.30;;;;;;;11.60;90.51;97973.50;5074038;28;20075;-90
2023/03/09 03:51:26;;;;;;;8.63;2.83;;;;;;;11.75;89.57;97974.63;5074905;28;20048;-91
2023/03/09 03:53:54;;;;;;;7.13;3.00;;;;;;;11.63;89.73;97966.25;5074161;28;20041;-91
2023/03/09 03:56:20;;;;;;;5.20;2.95;;;;;;;11.65;89.39;97959.06;5074213;28;20044;-90
2023/03/09 03:58:45;;;;;;;4.55;2.65;;;;;;;11.75;88.53;97945.34;5074522;28;20528;-92
2023/03/09 04:01:11;;;;;;;5.88;2.90;;;;;;;11.72;88.64;97941.88;5073849;28;20037;-91
2023/03/09 04:03:37;;;;;;;6.55;3.00;;;;;;;11.72;88.21;97955.19;5074052;28;20059;-91
2023/03/09 04:06:03;;;;;;;5.88;2.90;;;;;;;11.67;88.85;97940.38;5074438;28;20044;-93
2023/03/09 04:08:29;;;;;;;5.40;2.70;;;;;;;11.51;88.80;97918.88;5074487;28;20037;-92
2023/03/09 04:10:57;;;;;;;5.32;2.90;;;;;;;11.65;88.31;97959.06;5074813;28;20040;-91
2023/03/09 04:13:23;;;;;;;8.13;2.83;;;;;;;11.53;87.90;97930.31;5074348;28;20041;-92
2023/03/09 04:15:49;;;;;;;5.32;2.80;;;;;;;11.59;87.14;97956.69;5074763;28;20037;-93
2023/03/09 04:18:15;;;;;;;4.57;2.97;;;;;;;11.68;86.90;97977.56;5074494;28;20052;-91
2023/03/09 04:20:42;;;;;;;5.18;2.45;;;;;;;11.55;87.22;97967.53;5073904;28;20047;-94
2023/03/09 04:23:10;;;;;;;5.25;2.80;;;;;;;11.64;86.95;97973.31;5073260;28;20052;-92
2023/03/09 04:25:36;;;;;;;6.28;2.75;;;;;;;11.74;86.61;97986.22;5069787;28;20056;-91
2023/03/09 04:28:04;;;;;;;6.93;2.63;;;;;;;11.69;85.75;97976.66;5074098;28;20052;-93
2023/03/09 04:30:30;;;;;;;6.18;2.88;;;;;;;11.60;86.71;97960.19;5073488;28;20087;-92
2023/03/09 04:32:56;;;;;;;7.18;2.70;;;;;;;11.64;86.99;97961.78;5073384;28;20048;-91
2023/03/09 04:35:22;;;;;;;5.50;2.80;;;;;;;11.55;86.66;97951.56;5074334;28;20212;-91
2023/03/09 04:37:48;;;;;;;5.32;2.63;;;;;;;11.48;87.17;97953.63;5073604;28;20070;-91
2023/03/09 04:40:14;;;;;;;5.13;2.60;;;;;;;11.49;86.79;97937.59;5073576;28;20124;-92
2023/03/09 04:42:40;;;;;;;4.68;2.63;;;;;;;11.44;86.74;97936.06;5073872;28;20041;-92
2023/03/09 04:45:08;;;;;;;5.88;2.85;;;;;;;11.54;87.51;97961.34;5073509;28;20045;-92
2023/03/09 04:47:34;;;;;;;5.90;2.77;;;;;;;11.48;87.55;97962.47;5073779;28;20040;-92
2023/03/09 04:50:00;;;;;;;6.65;2.90;;;;;;;11.48;87.81;97970.47;5073639;28;20463;-91
2023/03/09 04:52:26;;;;;;;4.55;2.95;;;;;;;11.37;88.44;97963.88;5073094;28;20094;-94
2023/03/09 04:54:54;;;;;;;11.35;3.33;;;;;;;11.42;88.21;97972.53;5073685;28;20043;-92
2023/03/09 04:57:21;;;;;;;5.97;2.97;;;;;;;11.33;88.64;97967.59;5073874;28;20482;-92
2023/03/09 04:59:47;;;;;;;5.47;2.80;;;;;;;11.40;88.51;97985.03;5073453;28;20094;-91
2023/03/09 05:02:14;;;;;;;6.90;3.00;;;;;;;11.38;88.26;97969.13;5072692;28;20052;-92
2023/03/09 05:04:40;;;;;;;7.13;2.97;;;;;;;11.50;87.30;97978.38;5073916;28;20124;-91
2023/03/09 05:07:06;;;;;;;4.45;2.67;;;;;;;11.44;87.75;97970.66;5073655;28;20087;-91
2023/03/09 05:09:31;;;;;;;6.28;3.00;;;;;;;11.27;88.16;97953.59;5074761;28;20072;-92
2023/03/09 05:11:57;;;;;;;6.70;3.10;;;;;;;11.26;88.18;97953.69;5077219;28;20049;-93
2023/03/09 05:14:23;;;;;;;7.78;3.03;;;;;;;11.39;88.65;97978.84;5076963;28;20064;-92
2023/03/09 05:16:51;;;;;;;5.97;2.72;;;;;;;11.43;88.10;97976.94;5077232;28;20501;-92
2023/03/09 05:19:18;;;;;;;6.15;2.92;;;;;;;11.36;88.99;97967.47;5075737;28;20059;-90
2023/03/09 05:21:44;;;;;;;6.22;3.10;;;;;;;11.39;88.55;97978.00;5076654;28;20536;-92
2023/03/09 05:24:10;;;;;;;8.68;3.03;;;;;;;11.38;88.63;97981.56;5076938;28;20040;-92
2023/03/09 05:26:36;;;;;;;5.95;2.90;;;;;;;11.35;88.14;97958.63;5077133;28;20521;-90
2023/03/09 05:29:02;;;;;;;6.72;2.90;;;;;;;11.37;88.46;97975.38;5064588;28;20139;-90
2023/03/09 05:31:28;;;;;;;6.57;3.15;;;;;;;11.38;88.68;97986.88;5076898;28;20032;-93
2023/03/09 05:33:54;;;;;;;5.45;2.85;;;;;;;11.41;88.79;97992.97;5078049;28;20076;-93
2023/03/09 05:36:22;;;;;;;5.95;2.72;;;;;;;11.38;89.28;97990.41;5076471;28;20521;-93
2023/03/09 05:38:49;;;;;;;3.80;2.70;;;;;;;11.32;89.38;97993.38;5057300;28;20494;-94
2023/03/09 05:41:15;;;;;;;6.57;3.00;;;;;;;11.29;89.71;98001.47;5076462;28;20052;-92
2023/03/09 05:43:42;;;;;;;6.25;3.10;;;;;;;11.32;89.07;98001.34;5076669;28;20131;-94
2023/03/09 05:46:09;;;;;;;6.07;3.08;;;;;;;11.38;89.15;98008.19;5076918;28;20040;-94
2023/03/09 05:48:35;;;;;;;6.00;3.05;;;;;;;11.41;88.78;98000.09;5076951;28;20074;-93
2023/03/09 05:51:02;;;;;;;5.28;2.90;;;;;;;11.45;88.31;97999.88;5077218;28;20102;-91
2023/03/09 05:53:29;;;;;;;7.82;3.13;;;;;;;11.29;88.71;97961.53;5077380;28;20045;-93
2023/03/09 05:55:56;;;;;;;6.20;3.30;;;;;;;11.40;89.07;97975.25;5076492;28;20115;-93
2023/03/09 05:58:22;;;;;;;7.65;3.10;;;;;;;11.38;89.01;97976.25;5076544;28;20049;-92
2023/03/09 06:00:48;;;;;;;6.22;3.03;;;;;;;11.38;88.64;97977.09;5076323;28;20032;-92
2023/03/09 06:03:14;;;;;;;6.65;3.10;;;;;;;11.39;89.14;97975.31;5076363;28;20068;-92
2023/03/09 06:05:40;;;;;;;8.05;3.08;;;;;;;11.34;89.21;97969.31;5076302;28;20098;-93
2023/03/09 06:08:05;;;;;;;9.23;3.40;;;;;;;11.31;89.36;97971.19;5076201;28;20386;-94
2023/03/09 06:10:33;;;;;;;5.15;3.05;;;;;;;11.28;89.62;97959.81;5077178;28;20468;-92
2023/03/09 06:12:59;;;;;;;5.68;2.90;;;;;;;11.33;89.10;97978.25;5080632;28;20065;-90
2023/03/09 06:15:24;;;;;;;7.05;3.08;;;;;;;11.38;88.95;97990.41;5075972;28;20052;-93
2023/03/09 06:17:50;;;;;;;5.43;2.63;;;;;;;11.26;89.34;97970.53;5076276;28;20044;-93
2023/03/09 06:20:16;;;;;;;7.25;3.20;;;;;;;11.32;89.00;97972.06;5076009;28;20049;-93
2023/03/09 06:22:44;;;;;;;8.00;3.03;;;;;;;11.48;88.49;97988.22;5075256;28;20603;-93
2023/03/09 06:25:10;;;;;;;10.48;3.58;;;;;;;11.48;88.84;97981.09;5076296;28;20167;-95
2023/03/09 06:27:38;;;;;;;9.70;3.50;;;;;;;11.49;89.01;97977.53;5075304;28;20040;-96
2023/03/09 06:30:05;;;;;;;8.38;3.90;;;;;;;11.55;88.40;97979.03;5076174;28;20402;-91
2023/03/09 06:32:32;;;;;;;7.20;3.45;;;;;;;11.62;88.21;97990.28;5076106;28;20055;-92
2023/03/09 06:34:58;;;;;;;12.98;3.50;;;;;;;11.67;88.12;97986.50;5076515;28;20041;-94
2023/03/09 06:37:24;;;;;;;8.25;3.40;;;;;;;11.83;87.11;97983.16;5076641;28;20045;-94
2023/03/09 06:39:49;;;;;;;9.43;3.85;;;;;;;11.85;87.41;97991.94;5076539;28;20048;-94
2023/03/09 06:42:15;;;;;;;10.43;4.13;;;;;;;11.98;86.26;97984.31;5076585;28;20055;-94
2023/03/09 06:44:43;;;;;;;5.60;3.33;;;;;;;12.02;86.42;97981.41;5076390;28;20036;-93
2023/03/09 06:47:09;;;;;;;12.07;3.92;;;;;;;11.85;87.05;97962.63;5076018;28;20044;-94
2023/03/09 06:49:35;;;;;;;8.88;3.42;;;;;;;11.86;86.49;97959.91;5076620;28;20444;-92
2023/03/09 06:52:02;;;;;;;6.15;3.13;;;;;;;12.01;86.00;97977.00;5075883;28;20063;-92
2023/03/09 06:54:27;;;;;;;5.93;3.33;;;;;;;11.97;86.09;97963.91;5076178;28;20071;-93
2023/03/09 06:56:54;;;;;;;7.53;3.20;;;;;;;11.92;86.61;97961.44;5078651;28;20452;-96
2023/03/09 06:59:19;;;;;;;8.60;3.40;;;;;;;11.95;86.83;97984.41;5075856;28;20044;-92
2023/03/09 07:01:47;;;;;;;11.55;4.22;;;;;;;12.00;87.30;97985.09;5076548;28;20041;-93
2023/03/09 07:04:13;;;;;;;6.50;3.42;;;;;;;11.91;87.02;97965.06;5075767;28;20037;-93
2023/03/09 07:06:38;;;;;;;6.35;3.42;;;;;;;12.02;86.86;97972.56;5077301;28;20555;-93
2023/03/09 07:09:04;;;;;;;9.10;3.55;;;;;;;12.16;86.66;97978.09;5076428;28;20143;-93
2023/03/09 07:11:30;;;;;;;7.53;3.20;;;;;;;12.29;84.89;97971.28;5076243;28;20116;-91
2023/03/09 07:13:56;;;;;;;5.75;3.17;;;;;;;12.48;84.38;97965.09;5076198;28;20036;-93
2023/03/09 07:16:22;;;;;;;6.75;3.60;;;;;;;12.76;83.03;97964.63;5075120;28;20043;-93
2023/03/09 07:18:50;;;;;;;10.25;3.65;;;;;;;12.95;81.88;97956.59;5076092;28;20049;-93
2023/03/09 07:21:16;;;;;;;6.95;2.90;;;;;;;13.09;80.19;97942.53;5076536;28;20048;-93
2023/03/09 07:23:42;;;;;;;7.38;3.47;;;;;;;13.21;80.61;97952.59;5076464;28;20075;-92
2023/03/09 07:26:07;;;;;;;5.78;3.00;;;;;;;13.28;79.87;97955.81;5074577;28;20033;-93
2023/03/09 07:28:33;;;;;;;7.30;3.25;;;;;;;13.26;79.72;97953.22;5076353;28;20055;-94
2023/03/09 07:31:06;;;;;;;6.15;2.92;;;;;;;13.37;79.65;97965.19;5075499;28;20414;-93
2023/03/09 07:33:32;;;;;;;7.15;3.58;;;;;;;13.31;80.08;97961.88;5074881;28;20071;-93
2023/03/09 07:36:02;;;;;;;5.72;3.25;;;;;;;13.29;80.86;97966.47;5075290;28;20045;-92
2023/03/09 07:38:28;;;;;;;7.13;3.30;;;;;;;13.31;80.92;97945.00;5077291;28;20045;-94
2023/03/09 07:40:56;;;;;;;7.05;3.50;;;;;;;13.31;80.63;97943.19;5075993;28;20047;-93
2023/03/09 07:43:22;;;;;;;7.82;3.60;;;;;;;13.23;81.04;97950.72;5075747;28;20112;-93
2023/03/09 07:45:48;;;;;;;8.95;3.35;;;;;;;13.11;81.48;97954.00;5076221;28;20068;-93
2023/03/09 07:48:15;;;;;;;6.60;3.40;;;;;;;12.91;82.26;97941.66;5077871;28;20036;-93
2023/03/09 07:50:41;;;;;;;6.30;3.15;;;;;;;12.88;82.85;97947.13;5077631;28;20043;-94
2023/03/09 07:53:09;;;;;;;9.88;3.63;;;;;;;12.89;83.81;97960.41;5078477;28;20044;-94
2023/03/09 07:55:36;;;;;;;7.15;3.70;;;;;;;13.19;82.75;97961.63;5078102;28;20115;-93
2023/03/09 07:58:02;;;;;;;9.13;3.25;;;;;;;13.10;82.85;97950.47;5078213;28;20044;-93
2023/03/09 08:00:28;;;;;;;10.25;3.60;;;;;;;13.28;82.54;97961.16;5079466;28;20097;-94
2023/03/09 08:02:56;;;;;;;6.15;3.17;;;;;;;13.48;82.00;97973.50;5079953;28;20044;-93
2023/03/09 08:05:23;;;;;;;5.32;3.28;;;;;;;13.59;82.02;97971.16;5080396;28;20056;-93
2023/03/09 08:07:49;;;;;;;5.82;3.08;;;;;;;13.63;81.99;97961.19;5080253;28;20550;-92
2023/03/09 08:10:19;;;;;;;8.18;3.60;;;;;;;13.81;82.14;97980.72;5077545;28;20049;-93
2023/03/09 08:12:47;;;;;;;8.32;3.03;;;;;;;13.65;82.56;97961.97;5079665;28;20079;-93
2023/03/09 08:15:13;;;;;;;10.82;3.35;;;;;;;13.56;83.23;97969.50;5078545;28;20402;-94
2023/03/09 08:17:40;;;;;;;6.95;3.85;;;;;;;13.52;84.36;97967.06;5079676;28;20131;-95
2023/03/09 08:20:08;;;;;;;7.50;3.35;;;;;;;13.35;85.22;97950.09;5079656;28;20045;-93
2023/03/09 08:22:37;;;;;;;8.90;3.55;;;;;;;13.46;85.43;97960.22;5079516;28;20048;-93
2023/03/09 08:25:05;;;;;;;8.52;3.45;;;;;;;13.82;84.15;97945.03;5077938;28;20041;-95
2023/03/09 08:27:37;;;;;;;7.70;3.10;;;;;;;14.11;82.00;97946.13;5079021;28;20049;-92
2023/03/09 08:30:03;;;;;;;5.78;3.33;;;;;;;14.26;82.03;97966.69;5078415;28;20048;-93
2023/03/09 08:32:30;;;;;;;12.73;3.78;;;;;;;14.72;79.82;97979.34;5078271;28;20558;-93
2023/03/09 08:34:57;;;;;;;9.90;3.60;;;;;;;14.68;79.87;97961.72;5079409;28;20232;-94
2023/03/09 08:37:24;;;;;;;6.70;3.20;;;;;;;14.79;79.77;97980.72;5077948;28;20048;-94
2023/03/09 08:39:51;;;;;;;7.63;4.35;;;;;;;14.81;79.91;97989.50;5077299;28;20049;-93
2023/03/09 08:42:17;;;;;;;6.32;3.20;;;;;;;14.81;79.43;97978.81;5077602;28;20127;-94
2023/03/09 08:44:44;;;;;;;10.95;4.05;;;;;;;14.75;79.90;97973.81;5078441;28;20040;-92
2023/03/09 08:47:10;;;;;;;9.23;3.88;;;;;;;15.08;78.96;97976.38;5080909;28;20139;-94
2023/03/09 08:49:40;;;;;;;8.32;3.22;;;;;;;15.23;78.73;97976.44;5080592;28;20134;-94
2023/03/09 08:52:06;;;;;;;11.20;3.50;;;;;;;15.53;77.97;97998.72;5080891;28;20109;-92
2023/03/09 08:54:32;;;;;;;10.38;3.78;;;;;;;15.41;77.95;97992.25;5081230;28;20045;-94
2023/03/09 08:56:58;;;;;;;9.45;3.92;;;;;;;15.27;77.79;97983.34;5083442;28;20040;-95
2023/03/09 08:59:24;;;;;;;9.35;3.90;;;;;;;15.39;78.83;97986.13;5082734;28;20055;-95
2023/03/09 09:01:52;;;;;;;10.00;3.55;;;;;;;15.90;77.10;98007.28;5082810;28;20045;-95
2023/03/09 09:04:18;;;;;;;9.32;3.65;;;;;;;15.97;76.34;97999.72;5082782;28;20048;-95
2023/03/09 09:06:44;;;;;;;10.70;3.42;;;;;;;15.93;75.95;97996.34;5083598;28;20045;-95
2023/03/09 09:09:10;;;;;;;8.02;3.40;;;;;;;16.20;75.39;97983.06;5083589;28;20040;-95
2023/03/09 09:11:36;;;;;;;8.00;3.58;;;;;;;16.23;73.72;97972.13;5081936;28;20048;-95
2023/03/09 09:14:02;;;;;;;7.60;3.85;;;;;;;16.18;74.43;97987.66;5082822;28;20044;-94
2023/03/09 09:16:29;;;;;;;8.13;4.13;;;;;;;16.29;73.96;97992.34;5084211;28;20055;-92
2023/03/09 09:18:56;;;;;;;7.97;3.90;;;;;;;16.11;73.82;97994.38;5082125;28;20447;-95
2023/03/09 09:21:27;;;;;;;10.73;3.88;;;;;;;15.99;74.73;97987.94;5082693;28;20135;-95
2023/03/09 09:23:54;;;;;;;9.38;3.67;;;;;;;15.96;75.80;97992.59;5082376;28;20052;-95
2023/03/09 09:26:20;;;;;;;8.02;3.55;;;;;;;16.00;74.87;97997.72;5082840;28;20048;-95
2023/03/09 09:28:47;;;;;;;8.93;3.72;;;;;;;15.69;75.82;98012.06;5082087;28;20041;-94
2023/03/09 09:31:16;;;;;;;9.20;3.70;;;;;;;15.60;75.87;98002.75;5080566;28;20049;-94
2023/03/09 09:33:42;;;;;;;9.43;3.80;;;;;;;15.71;76.43;98007.50;5082207;28;20044;-95
2023/03/09 09:36:13;;;;;;;13.20;4.60;;;;;;;15.66;77.27;98019.41;5079356;28;20041;-95
2023/03/09 09:38:41;;;;;;;9.20;3.70;;;;;;;15.65;77.64;98015.03;5081191;28;20516;-96
2023/03/09 09:41:16;;;;;;;8.88;3.60;;;;;;;15.63;78.73;98009.75;5082453;28;20047;-96
2023/03/09 09:44:15;;;;;;;7.85;3.60;;;;;;;15.50;79.56;98028.38;5081861;28;20056;-95
2023/03/09 09:46:41;;;;;;;11.32;3.85;;;;;;;15.27;81.02;98013.66;5059863;28;20049;-92
2023/03/09 09:49:13;;;;;;;9.57;3.50;;;;;;;15.19;81.59;98005.22;5064186;28;20066;-95
2023/03/09 09:52:12;;;;;;;13.93;4.88;;;;;;;15.38;81.32;98029.13;5080858;28;20094;-94
2023/03/09 09:54:47;;;;;;;12.57;3.90;;;;;;;15.25;82.82;98036.13;5046534;28;20054;-94
2023/03/09 09:57:17;;;;;;;12.00;4.28;;;;;;;15.04;83.26;98030.19;5078848;28;20044;-94
2023/03/09 09:59:53;;;;;;;11.80;3.95;;;;;;;15.04;82.74;98025.69;5080030;28;20036;-94
2023/03/09 10:02:35;;;;;;;7.25;3.80;;;;;;;14.99;83.39;98009.91;5080192;28;20045;-94
2023/03/09 10:05:07;;;;;;;11.90;4.45;;;;;;;15.32;82.40;98013.38;5078549;28;20036;-94
2023/03/09 10:07:36;;;;;;;11.73;3.85;;;;;;;15.19;81.81;98014.09;5081076;28;20506;-95
2023/03/09 10:10:06;;;;;;;12.27;3.65;;;;;;;15.79;80.79;98041.91;5082914;28;20098;-95
2023/03/09 10:12:33;;;;;;;8.68;3.88;;;;;;;15.39;80.55;98007.56;5078850;28;20045;-95
2023/03/09 10:15:04;;;;;;;7.70;3.70;;;;;;;15.60;80.36;98018.00;5080012;28;20040;-95
2023/03/09 10:17:35;;;;;;;12.25;3.95;;;;;;;15.80;80.52;98008.78;5080087;28;20075;-94
2023/03/09 10:20:14;;;;;;;11.43;3.80;;;;;;;16.30;78.08;97993.22;5082977;28;20072;-94
2023/03/09 10:22:45;;;;;;;13.07;4.22;;;;;;;16.44;76.44;97990.53;5082431;28;20056;-95
2023/03/09 10:25:13;;;;;;;12.77;4.40;;;;;;;16.57;76.12;97993.28;5081903;28;20041;-95
2023/03/09 10:27:42;;;;;;;11.53;3.97;;;;;;;16.45;76.01;98010.16;5081914;28;20037;-94
2023/03/09 10:30:18;;;;;;;9.55;3.70;;;;;;;16.48;76.75;98010.84;5079739;28;20112;-94
2023/03/09 10:32:51;;;;;;;10.13;3.53;;;;;;;16.51;76.08;98007.97;5081099;28;20060;-93
2023/03/09 10:35:26;;;;;;;9.55;3.72;;;;;;;17.20;74.48;98014.25;5081384;28;20053;-95
2023/03/09 10:37:54;;;;;;;8.95;3.88;;;;;;;17.57;72.31;98002.88;5080603;28;20059;-94
2023/03/09 10:40:24;;;;;;;8.23;3.90;;;;;;;17.41;71.97;98011.09;5077756;28;20049;-95
2023/03/09 10:42:51;;;;;;;8.40;4.10;;;;;;;17.53;71.54;98004.06;5077086;28;20107;-93
2023/03/09 10:45:23;;;;;;;8.27;4.10;;;;;;;17.08;72.97;98016.88;5077133;28;20059;-94
2023/03/09 10:47:59;;;;;;;14.38;4.40;;;;;;;16.98;73.74;98006.75;5079478;28;20072;-95
2023/03/09 10:50:28;;;;;;;11.73;4.13;;;;;;;16.82;73.31;97995.28;5078728;28;20378;-94
2023/03/09 10:52:56;;;;;;;10.30;3.60;;;;;;;16.61;74.86;97998.38;5080359;28;20139;-93
2023/03/09 10:55:41;;;;;;;9.63;3.83;;;;;;;16.69;74.51;98015.78;5082197;28;20055;-93
2023/03/09 10:58:15;;;;;;;12.13;4.10;;;;;;;16.50;74.82;98016.94;5083586;28;20458;-91
2023/03/09 11:00:55;;;;;;;9.75;3.88;;;;;;;16.35;75.51;98012.56;5083463;28;20044;-94
2023/03/09 11:03:29;;;;;;;11.15;4.47;;;;;;;16.07;76.08;98003.56;5083810;28;20040;-95
2023/03/09 11:06:09;;;;;;;12.73;4.57;;;;;;;15.92;77.36;98015.22;5081588;28;20052;-95
2023/03/09 11:08:41;;;;;;;12.27;4.68;;;;;;;16.05;76.81;98007.28;5078149;28;20045;-93
2023/03/09 11:11:19;;;;;;;9.48;4.65;;;;;;;15.94;76.74;97995.41;5081051;28;20049;-93
2023/03/09 11:13:45;;;;;;;12.68;5.47;;;;;;;16.02;76.64;97994.91;5079795;28;20072;-95
2023/03/09 11:16:19;;;;;;;11.23;4.90;;;;;;;16.16;76.33;98013.72;5081896;28;20052;-93
2023/03/09 11:18:45;;;;;;;12.27;5.60;;;;;;;16.22;75.90;98025.88;5081133;28;20094;-94
2023/03/09 11:21:21;;;;;;;13.52;5.57;;;;;;;15.97;76.53;97991.66;5082939;28;20044;-94
2023/03/09 11:23:53;;;;;;;14.07;5.53;;;;;;;16.05;77.48;98018.88;5080454;28;20044;-93
2023/03/09 11:26:23;;;;;;;15.68;5.25;;;;;;;16.11;77.01;97989.00;5078653;28;20072;-95
2023/03/09 11:28:55;;;;;;;13.00;5.90;;;;;;;16.29;76.14;97996.88;5079246;28;20041;-94
2023/03/09 11:31:24;;;;;;;11.63;5.32;;;;;;;16.58;75.24;97993.19;5080487;28;20110;-93
2023/03/09 11:33:52;;;;;;;12.88;5.15;;;;;;;16.74;74.83;97993.06;5081660;28;20040;-95
2023/03/09 11:36:24;;;;;;;11.30;5.15;;;;;;;16.89;73.95;97990.38;5080558;28;20116;-95
2023/03/09 11:38:52;;;;;;;10.20;4.78;;;;;;;16.71;74.48;97987.03;5082019;28;20048;-93